Oakbrook, Washington
Current Conditions -  °F | °C
As of 8:58 AM on Tuesday 27 Jan 2015 (Local Time) from KTCM Reporting Station
Overcast Overcast  
Wind Chill: 48°   Ceiling: 1900
Heat Index: 48°   Visibility: 10mi
Dew Point: 48°   Wind: 2mph
Humidity: 100%   Direction: 170°S
Pressure: 30.06"   Gusts: NA
Location:  47.1809°N, 122.548°W
Report Text: KTCM 271658Z AUTO 17002KT 10SM OVC019 09/09 A3006 RMK AO2 SLP184 T00900090
Loading
Personal Weather Stations






























Interactive Weather Map New forecast layout! Learn more

10-Day Weather Forecast

Advertisements
Track Severe Weather on mobile